Latest Weather Observations for Avalon

IDV60901

Issued at 10:15 pm EST Tuesday 23 September 2014 (issued every 10 minutes, with the page automatically refreshed every 10 minutes)

About weather observations | Map of Melbourne area stations | Latest observations for Melbourne area | Other Formats
Station Details ID: 087113 Name: AVALON AIRPORT Lat: -38.03 Lon: 144.48 Height: 10.6 m
Data from the previous 72 hours. | See also: Recent months at Avalon
Date/Time
EST
Tmp

°C
App
Tmp
°C
Dew
Point
°C
Rel
Hum
%
Delta-T

°C
Wind Press
QNH
hPa
Press
MSL
hPa
Rain
since
9 am
mm
Dir
 
Spd
km/h
Gust
km/h
Spd
kts
Gust
kts
23/10:00pm 17.9 14.3 8.2 53 4.9 N 17 24 9 13 1020.5 1020.5 0.0
23/09:30pm 17.4 14.5 8.3 55 4.7 NNE 13 17 7 9 1020.8 1020.8 0.0
23/09:00pm 17.4 14.4 7.7 53 4.9 NNE 13 17 7 9 1020.9 1020.9 0.0
23/08:30pm 18.6 15.6 7.7 49 5.6 NNE 13 19 7 10 1021.0 1021.0 0.0
23/08:00pm 19.2 15.8 7.6 47 5.9 N 15 19 8 10 1021.1 1021.1 0.0
23/07:30pm 19.7 16.1 8.4 48 5.9 N 17 19 9 10 1020.9 1020.9 0.0
23/07:28pm 19.5 16.4 8.8 50 5.6 N 15 19 8 10 1020.8 1020.8 0.0
23/07:00pm 14.4 12.6 9.4 72 2.6 E 9 11 5 6 1020.7 1020.7 0.0
23/06:30pm 15.1 12.9 9.2 68 3.0 ESE 11 15 6 8 1020.8 1020.8 0.0
23/06:00pm 17.2 15.1 9.6 61 4.0 E 11 11 6 6 1020.9 1020.9 0.0
23/05:30pm 19.4 17.5 10.4 56 4.8 E 11 13 6 7 1020.9 1020.9 0.0
23/05:00pm 20.1 17.5 10.8 55 5.1 ESE 15 19 8 10 1020.8 1020.8 0.0
23/04:30pm 22.3 18.9 9.1 43 7.1 ESE 17 22 9 12 1020.9 1020.9 0.0
23/04:00pm 23.0 18.8 7.5 37 8.1 ESE 19 22 10 12 1021.2 1021.2 0.0
23/03:30pm 23.6 18.7 6.8 34 8.7 ESE 22 26 12 14 1021.3 1021.3 0.0
23/03:00pm 23.9 19.0 7.1 34 8.7 SE 22 28 12 15 1021.7 1021.7 0.0
23/02:30pm 24.8 19.5 7.0 32 9.3 ESE 24 28 13 15 1022.1 1022.1 0.0
23/02:00pm 25.1 20.2 6.8 31 9.5 ESE 22 30 12 16 1022.3 1022.3 0.0
23/01:30pm 26.3 23.1 2.9 22 11.5 W 9 15 5 8 1022.6 1022.6 0.0
23/01:00pm 26.1 22.5 2.7 22 11.4 NNW 11 24 6 13 1022.9 1022.9 0.0
23/12:30pm 26.0 22.8 5.0 26 10.7 NNE 11 17 6 9 1023.3 1023.3 0.0
23/12:00pm 25.8 20.0 4.3 25 10.7 N 24 33 13 18 1023.9 1023.9 0.0
23/11:30am 25.5 19.2 4.0 25 10.7 N 26 35 14 19 1024.4 1024.4 0.0
23/11:00am 25.2 19.1 4.9 27 10.2 N 26 37 14 20 1024.8 1024.8 0.0
23/10:30am 24.5 19.0 5.8 30 9.5 N 24 33 13 18 1025.2 1025.2 0.0
23/10:00am 23.1 17.9 5.5 32 8.8 N 22 32 12 17 1025.7 1025.7 0.0
23/09:30am 21.4 16.8 6.5 38 7.6 N 20 24 11 13 1025.9 1025.9 0.0
23/09:00am 19.5 16.6 8.2 48 5.8 NE 13 17 7 9 1026.2 1026.2 0.0
23/08:30am 15.8 13.0 8.5 62 3.7 NE 13 15 7 8 1026.3 1026.3 0.0
23/08:00am 12.3 10.4 7.4 72 2.4 ENE 7 9 4 5 1026.5 1026.5 0.0
23/07:30am 8.9 7.6 6.2 83 1.2 NE 2 6 1 3 1026.5 1026.5 0.0
23/07:00am 4.8 3.0 3.3 90 0.6 NNW 2 13 1 7 1026.3 1026.3 0.0
23/06:30am 4.5 1.3 3.0 90 0.6 E 9 11 5 6 1026.2 1026.2 0.0
23/06:00am 3.0 -0.8 2.0 93 0.4 ESE 11 13 6 7 1026.0 1026.0 0.0
23/05:30am 2.8 -0.3 1.5 91 0.5 SE 7 11 4 6 1025.7 1025.7 0.0
23/05:00am 3.7 0.9 2.2 90 0.6 SSE 6 7 3 4 1025.5 1025.5 0.0
23/04:30am 3.7 0.9 1.9 88 0.7 SW 6 9 3 5 1025.5 1025.5 0.0
23/04:00am 4.5 2.1 2.2 85 0.9 N 4 6 2 3 1025.2 1025.2 0.0
23/03:30am 6.6 4.0 4.1 84 1.1 N 7 9 4 5 1025.0 1025.0 0.0
23/03:00am 5.9 2.8 3.6 85 1.0 NNE 9 13 5 7 1025.2 1025.2 0.0
23/02:30am 6.3 3.8 3.5 82 1.2 NNE 6 9 3 5 1025.5 1025.5 0.0
23/02:00am 6.9 3.2 4.4 84 1.1 NE 13 15 7 8 1025.6 1025.6 0.0
23/01:30am 7.0 4.1 4.8 86 1.0 NE 9 11 5 6 1025.9 1025.9 0.0
23/01:00am 5.4 3.5 3.1 85 0.9 WNW 2 6 1 3 1026.4 1026.4 0.0
23/12:30am 7.1 4.6 4.6 84 1.1 NNE 7 13 4 7 1026.4 1026.4 0.0
23/12:00am 7.6 6.2 5.7 88 0.8 NNE 2 7 1 4 1026.6 1026.6 0.0
 
Date/Time
EST
Tmp

°C
App
Tmp
°C
Dew
Point
°C
Rel
Hum
%
Delta-T

°C
Wind Press
QNH
hPa
Press
MSL
hPa
Rain
since
9 am
mm
Dir
 
Spd
km/h
Gust
km/h
Spd
kts
Gust
kts
22/11:30pm 7.2 4.8 5.2 87 0.9 NNE 7 7 4 4 1026.7 1026.7 0.0
22/11:00pm 8.8 6.6 6.4 85 1.1 N 7 11 4 6 1026.9 1026.9 0.0
22/10:30pm 9.2 6.4 6.8 85 1.1 N 11 13 6 7 1027.2 1027.2 0.0
22/10:00pm 8.8 6.2 6.2 84 1.2 N 9 11 5 6 1027.3 1027.3 0.0
22/09:30pm 9.4 7.4 7.0 85 1.1 NW 7 9 4 5 1027.1 1027.1 0.0
22/09:00pm 10.7 10.2 7.9 83 1.3 CALM 0 0 0 0 1027.0 1027.0 0.0
22/08:30pm 11.2 9.6 8.1 81 1.5 WNW 6 13 3 7 1027.0 1027.0 0.0
22/08:00pm 13.7 11.6 9.6 76 2.1 ESE 11 13 6 7 1026.7 1026.7 0.0
22/07:30pm 12.6 10.9 8.5 76 2.0 ESE 7 9 4 5 1026.4 1026.4 0.0
22/07:00pm 14.4 12.3 9.6 73 2.5 ESE 11 11 6 6 1026.1 1026.1 0.0
22/06:30pm 15.2 13.5 9.8 70 2.8 ESE 9 11 5 6 1025.9 1025.9 0.0
22/06:00pm 16.4 14.4 10.3 67 3.2 ESE 11 11 6 6 1025.9 1025.9 0.0
22/05:30pm 18.2 16.2 10.3 60 4.2 SE 11 13 6 7 1025.6 1025.6 0.0
22/05:00pm 19.9 17.2 8.9 49 5.7 SE 13 17 7 9 1025.4 1025.4 0.0
22/04:30pm 20.6 16.9 7.9 44 6.6 SE 17 19 9 10 1025.4 1025.4 0.0
22/04:00pm 20.8 16.9 7.1 41 7.0 SE 17 22 9 12 1025.4 1025.4 0.0
22/03:30pm 20.7 16.8 7.0 41 7.0 ESE 17 20 9 11 1025.5 1025.5 0.0
22/03:00pm 20.8 17.0 7.4 42 6.8 SE 17 20 9 11 1025.6 1025.6 0.0
22/02:30pm 20.7 16.3 6.6 40 7.1 SE 19 24 10 13 1025.9 1025.9 0.0
22/02:00pm 21.1 17.2 7.3 41 7.0 SE 17 20 9 11 1026.1 1026.1 0.0
22/01:30pm 20.4 16.3 7.7 44 6.5 SE 19 22 10 12 1026.5 1026.5 0.0
22/01:00pm 19.4 15.1 7.8 47 5.9 SE 20 24 11 13 1026.9 1026.9 0.0
22/12:30pm 18.1 14.3 9.2 56 4.7 ESE 19 20 10 11 1027.4 1027.4 0.0
22/12:00pm 18.0 14.5 10.1 60 4.2 ESE 19 22 10 12 1027.9 1027.9 0.0
22/11:30am 17.9 15.0 9.5 58 4.4 E 15 17 8 9 1028.2 1028.2 0.0
22/11:00am 17.5 13.9 10.6 64 3.7 SE 20 24 11 13 1028.5 1028.5 0.0
22/10:30am 17.2 14.7 8.1 55 4.6 NE 11 17 6 9 1028.9 1028.9 0.0
22/10:00am 16.1 13.6 8.3 60 3.9 NE 11 17 6 9 1029.3 1029.3 0.0
22/09:30am 14.3 11.8 8.3 67 3.0 NE 11 15 6 8 1029.5 1029.5 0.0
22/09:00am 13.0 10.8 7.9 71 2.5 NNE 9 13 5 7 1029.7 1029.7 0.0
22/08:30am 11.9 11.0 9.3 84 1.3 ENE 4 7 2 4 1029.8 1029.8 0.0
22/08:00am 8.9 7.6 7.8 93 0.5 ENE 4 7 2 4 1029.8 1029.8 0.0
22/07:30am 5.3 3.5 5.2 99 0.0 N 4 6 2 3 1029.5 1029.5 0.0
22/07:00am 2.4 0.8 2.3 99 0.0 CALM 0 7 0 4 1029.4 1029.4 0.0
22/06:30am 1.9 0.2 1.8 99 0.0 CALM 0 0 0 0 1029.3 1029.3 0.0
22/06:00am 0.8 -2.2 0.5 98 0.1 NW 6 7 3 4 1029.1 1029.1 0.0
22/05:30am 1.2 -1.9 1.1 99 0.0 NW 7 7 4 4 1028.8 1028.8 0.0
22/05:00am -0.2 -4.0 -0.6 97 0.1 NNW 9 9 5 5 1028.7 1028.7 0.0
22/04:30am 2.0 -0.8 1.9 99 0.0 N 6 7 3 4 1028.6 1028.6 0.0
22/04:00am 2.5 -0.2 2.4 99 0.0 NW 6 7 3 4 1028.6 1028.6 0.0
22/03:30am 1.7 -1.4 1.4 98 0.1 WNW 7 7 4 4 1028.8 1028.8 0.0
22/03:00am 2.9 0.6 2.6 98 0.1 NW 4 6 2 3 1028.8 1028.8 0.0
22/02:30am 2.7 -0.1 2.3 97 0.2 NW 6 7 3 4 1029.1 1029.1 0.0
22/02:00am 3.3 0.6 2.9 97 0.2 NNW 6 7 3 4 1029.4 1029.4 0.0
22/01:30am 3.4 0.7 2.8 96 0.2 NNW 6 6 3 3 1029.6 1029.6 0.0
22/01:00am 3.5 0.8 2.9 96 0.2 WNW 6 7 3 4 1029.8 1029.8 0.0
22/12:30am 4.1 1.6 3.5 96 0.2 WNW 6 7 3 4 1029.8 1029.8 0.0
22/12:00am 3.8 1.0 3.1 95 0.3 WNW 7 9 4 5 1029.8 1029.8 0.0
 
Date/Time
EST
Tmp

°C
App
Tmp
°C
Dew
Point
°C
Rel
Hum
%
Delta-T

°C
Wind Press
QNH
hPa
Press
MSL
hPa
Rain
since
9 am
mm
Dir
 
Spd
km/h
Gust
km/h
Spd
kts
Gust
kts
21/11:30pm 4.2 1.0 3.3 94 0.4 NNW 9 9 5 5 1029.8 1029.8 0.0
21/11:00pm 4.4 1.3 3.4 93 0.4 N 9 11 5 6 1030.2 1030.2 0.0
21/10:30pm 5.0 1.6 4.0 93 0.4 N 11 13 6 7 1030.3 1030.3 0.0
21/10:00pm 5.6 3.2 4.2 91 0.6 N 6 7 3 4 1030.5 1030.5 0.0
21/09:30pm 6.9 5.9 5.4 90 0.7 CALM 0 0 0 0 1030.6 1030.6 0.0
21/09:00pm 5.9 4.6 4.1 88 0.8 CALM 0 0 0 0 1030.7 1030.7 0.0
21/08:30pm 8.1 6.4 6.1 87 0.9 SE 4 7 2 4 1030.9 1030.9 0.0
21/08:00pm 8.0 5.3 5.5 84 1.1 SSE 9 13 5 7 1030.9 1030.9 0.0
21/07:30pm 8.1 5.0 5.4 83 1.2 SSE 11 13 6 7 1030.7 1030.7 0.0
21/07:00pm 8.3 4.8 5.4 82 1.3 SSE 13 15 7 8 1030.6 1030.6 0.0
21/06:30pm 9.3 5.5 5.7 78 1.6 SSE 15 17 8 9 1030.2 1030.2 0.0
21/06:00pm 11.5 7.8 6.2 70 2.5 SSE 15 17 8 9 1030.0 1030.0 0.0
21/05:30pm 13.3 9.6 6.4 63 3.3 SSE 15 20 8 11 1029.9 1029.9 0.0
21/05:00pm 14.3 10.2 6.4 59 3.8 SSE 17 20 9 11 1029.7 1029.7 0.0
21/04:30pm 15.0 12.2 6.8 58 4.0 SE 11 17 6 9 1029.6 1029.6 0.0
21/04:00pm 15.1 11.9 6.7 57 4.1 ESE 13 17 7 9 1029.8 1029.8 0.0
21/03:30pm 15.5 12.3 6.8 56 4.3 ESE 13 17 7 9 1029.8 1029.8 0.0
21/03:00pm 15.2 11.8 6.0 54 4.4 SSE 13 17 7 9 1030.0 1030.0 0.0
21/02:30pm 15.6 13.2 6.9 56 4.3 ESE 9 19 5 10 1030.2 1030.2 0.0
21/02:00pm 15.4 12.4 5.9 53 4.5 E 11 19 6 10 1030.5 1030.5 0.0
21/01:30pm 15.6 13.0 6.3 54 4.5 SSE 9 20 5 11 1030.8 1030.8 0.0
21/01:00pm 15.4 11.3 6.4 55 4.3 SE 17 24 9 13 1031.3 1031.3 0.0
21/12:30pm 15.2 11.1 6.2 55 4.3 ESE 17 24 9 13 1031.6 1031.6 0.0
21/12:00pm 14.9 11.5 5.7 54 4.3 SSE 13 19 7 10 1031.9 1031.9 0.0
21/11:30am 14.5 10.8 6.1 57 4.0 SSE 15 20 8 11 1032.2 1032.2 0.0
21/11:00am 14.6 10.4 5.9 56 4.1 ESE 17 24 9 13 1032.4 1032.4 0.0
21/10:30am 14.1 10.0 6.2 59 3.8 SE 17 24 9 13 1032.4 1032.4 0.0
21/10:00am 13.9 10.0 5.5 57 3.9 SE 15 24 8 13 1032.5 1032.5 0.0
21/09:30am 14.2 10.8 5.8 57 4.0 SSE 13 20 7 11 1032.1 1032.1 0.0
21/09:00am 13.8 10.5 6.4 61 3.5 ESE 13 20 7 11 1031.8 1031.8 0.0
21/08:30am 13.5 12.3 6.4 62 3.4 SSE 2 9 1 5 1031.7 1031.7 0.0
21/08:00am 11.7 10.2 8.4 80 1.6 NNW 6 7 3 4 1031.4 1031.4 0.0
21/07:30am 9.6 8.8 8.0 90 0.8 NW 2 7 1 4 1031.4 1031.4 0.0
21/07:00am 9.0 6.8 7.8 92 0.6 W 9 11 5 6 1031.3 1031.3 0.0
21/06:30am 8.4 6.7 7.5 94 0.4 NW 6 7 3 4 1030.9 1030.9 0.0
21/06:00am 8.2 5.9 7.3 94 0.4 NNW 9 11 5 6 1030.6 1030.6 0.0
21/05:30am 8.5 6.5 7.3 92 0.6 WNW 7 9 4 5 1030.2 1030.2 0.0
21/05:00am 8.5 6.9 7.9 96 0.3 WNW 6 7 3 4 1030.3 1030.3 0.0
21/04:30am 8.2 6.4 7.8 97 0.2 WNW 7 9 4 5 1030.2 1030.2 0.0
21/04:00am 7.6 5.7 7.5 99 0.0 WNW 7 9 4 5 1030.0 1030.0 0.0
21/03:30am 7.2 4.8 7.1 99 0.0 NNW 9 11 5 6 1029.9 1029.9 0.0
21/03:00am 7.5 5.2 7.4 99 0.0 NNW 9 11 5 6 1030.0 1030.0 0.0
21/02:30am 7.4 6.8 7.3 99 0.0 CALM 0 0 0 0 1030.4 1030.4 0.0
21/02:00am 7.5 5.6 7.4 99 0.0 NW 7 9 4 5 1030.4 1030.4 0.0
21/01:30am 7.0 5.0 6.9 99 0.0 NW 7 9 4 5 1030.5 1030.5 0.0
21/01:00am 6.3 3.7 6.2 99 0.0 NW 9 11 5 6 1030.5 1030.5 0.0
21/12:30am 5.6 2.9 5.5 99 0.0 NW 9 11 5 6 1030.5 1030.5 0.0
21/12:00am 5.5 2.7 5.2 98 0.1 WNW 9 9 5 5 1030.5 1030.5 0.0
 
Date/Time
EST
Tmp

°C
App
Tmp
°C
Dew
Point
°C
Rel
Hum
%
Delta-T

°C
Wind Press
QNH
hPa
Press
MSL
hPa
Rain
since
9 am
mm
Dir
 
Spd
km/h
Gust
km/h
Spd
kts
Gust
kts
20/11:30pm 5.1 2.2 4.5 96 0.3 WNW 9 9 5 5 1030.4 1030.4 0.0
20/11:18pm 5.0 2.9 4.1 94 0.4 NW 4 9 2 5 1030.4 1030.4 0.0
20/11:00pm 7.5 6.0 6.8 95 0.3 ESE 4 6 2 3 1030.5 1030.5 0.0
20/10:58pm 7.8 6.0 7.2 96 0.3 ESE 6 7 3 4 1030.5 1030.5 0.0
20/10:30pm 8.0 5.7 7.4 96 0.3 SE 9 11 5 6 1030.3 1030.3 0.0

Latest Capital City Observations: Canberra | Sydney | Melbourne | Brisbane | Adelaide | Perth | Hobart | Darwin

Other Formats:

Comma delimited format used in spreadsheet applications
http://www.bom.gov.au/fwo/IDV60901/IDV60901.94854.axf

JavaScript Object Notation format (JSON) in row-major order
http://www.bom.gov.au/fwo/IDV60901/IDV60901.94854.json